createdAt,value
2022-10-05T00:01:29.811Z,19.45
2022-10-05T00:04:06.593Z,19.48
2022-10-05T00:06:37.280Z,19.46
2022-10-05T00:09:16.733Z,19.47
2022-10-05T00:11:45.755Z,19.53
2022-10-05T00:14:21.058Z,19.51
2022-10-05T00:16:49.520Z,19.46
2022-10-05T00:19:26.845Z,19.46
2022-10-05T00:21:59.458Z,19.39
2022-10-05T00:24:27.649Z,19.32
2022-10-05T00:26:58.200Z,19.40
2022-10-05T00:29:26.228Z,19.40
2022-10-05T00:31:54.308Z,19.44
2022-10-05T00:34:22.193Z,19.42
2022-10-05T00:36:53.107Z,19.36
2022-10-05T00:39:20.995Z,19.26
2022-10-05T00:42:18.177Z,19.40
2022-10-05T00:45:02.294Z,19.32
2022-10-05T00:47:30.128Z,19.27
2022-10-05T00:50:22.885Z,19.27
2022-10-05T00:53:18.681Z,19.22
2022-10-05T00:55:58.385Z,19.23
2022-10-05T00:58:50.838Z,19.29
2022-10-05T01:01:33.187Z,19.28
2022-10-05T01:04:12.987Z,19.18
2022-10-05T01:07:05.235Z,19.30
2022-10-05T01:09:45.437Z,19.35
2022-10-05T01:12:46.853Z,19.33
2022-10-05T01:15:31.812Z,19.26
2022-10-05T01:18:14.402Z,19.22
2022-10-05T01:21:06.383Z,19.20
2022-10-05T01:23:55.611Z,19.18
2022-10-05T01:26:57.192Z,19.20
2022-10-05T01:29:42.879Z,19.16
2022-10-05T01:32:11.074Z,19.18
2022-10-05T01:34:43.431Z,19.16
2022-10-05T01:37:18.189Z,19.16
2022-10-05T01:40:01.678Z,19.14
2022-10-05T01:42:44.338Z,19.14
2022-10-05T01:45:38.135Z,19.14
2022-10-05T01:48:22.727Z,19.14
2022-10-05T01:50:53.168Z,19.22
2022-10-05T01:53:46.960Z,19.27
2022-10-05T01:56:17.919Z,19.28
2022-10-05T01:59:01.988Z,19.25
2022-10-05T02:01:41.558Z,19.24
2022-10-05T02:04:42.686Z,19.23
2022-10-05T02:07:17.218Z,19.22
2022-10-05T02:09:59.858Z,19.25
2022-10-05T02:12:32.148Z,19.25
2022-10-05T02:15:21.202Z,19.23
2022-10-05T02:17:53.333Z,19.24
2022-10-05T02:20:31.187Z,19.17
2022-10-05T02:23:05.513Z,19.19
2022-10-05T02:25:35.228Z,19.18
2022-10-05T02:28:11.140Z,19.27
2022-10-05T02:30:59.186Z,19.27
2022-10-05T02:33:32.547Z,19.25
2022-10-05T02:36:13.797Z,19.27
2022-10-05T02:38:47.630Z,19.27
2022-10-05T02:41:47.670Z,19.25
2022-10-05T02:44:27.908Z,19.26
2022-10-05T02:47:33.686Z,19.09
2022-10-05T02:50:13.461Z,19.18
2022-10-05T02:53:32.372Z,18.99
2022-10-05T02:56:12.785Z,18.96
2022-10-05T02:58:52.065Z,19.05
2022-10-05T03:01:28.304Z,19.04
2022-10-05T03:04:34.585Z,19.00
2022-10-05T03:07:17.952Z,19.03
2022-10-05T03:10:01.220Z,18.89
2022-10-05T03:12:42.771Z,18.84
2022-10-05T03:15:20.731Z,18.84
2022-10-05T03:18:25.383Z,18.85
2022-10-05T03:21:12.191Z,18.83
2022-10-05T03:23:50.079Z,18.87
2022-10-05T03:26:50.007Z,18.76
2022-10-05T03:29:18.074Z,18.82
2022-10-05T03:32:01.083Z,18.75
2022-10-05T03:34:42.532Z,18.60
2022-10-05T03:37:13.559Z,18.76
2022-10-05T03:39:55.833Z,18.79
2022-10-05T03:42:48.690Z,18.93
2022-10-05T03:45:22.533Z,19.01
2022-10-05T03:47:51.163Z,19.13
2022-10-05T03:50:18.981Z,19.00
2022-10-05T03:52:55.725Z,18.94
2022-10-05T03:56:06.292Z,18.95
2022-10-05T03:58:57.471Z,19.02
2022-10-05T04:02:01.525Z,19.10
2022-10-05T04:04:49.090Z,19.05
2022-10-05T04:07:32.410Z,18.98
2022-10-05T04:10:03.565Z,18.99
2022-10-05T04:12:38.763Z,19.04
2022-10-05T04:15:21.680Z,19.10
2022-10-05T04:17:55.372Z,19.07
2022-10-05T04:20:37.426Z,19.07
2022-10-05T04:23:11.197Z,19.01
2022-10-05T04:25:59.743Z,18.93
2022-10-05T04:28:42.809Z,18.87
2022-10-05T04:31:43.956Z,18.83
2022-10-05T04:34:52.841Z,18.88
2022-10-05T04:37:45.609Z,18.88
2022-10-05T04:40:47.215Z,18.90
2022-10-05T04:43:21.648Z,18.86
2022-10-05T04:45:52.882Z,18.87
2022-10-05T04:48:36.195Z,18.88
2022-10-05T04:51:24.606Z,18.95
2022-10-05T04:54:16.124Z,19.11
2022-10-05T04:56:54.365Z,19.12
2022-10-05T04:59:57.765Z,19.12
2022-10-05T05:02:43.195Z,19.20
2022-10-05T05:05:29.828Z,19.20
2022-10-05T05:08:22.128Z,19.09
2022-10-05T05:11:03.616Z,19.10
2022-10-05T05:13:48.715Z,19.07
2022-10-05T05:16:34.453Z,19.02
2022-10-05T05:19:23.076Z,18.94
2022-10-05T05:22:15.514Z,18.88
2022-10-05T05:24:43.376Z,18.89
2022-10-05T05:27:33.062Z,18.85
2022-10-05T05:30:22.207Z,18.87
2022-10-05T05:33:19.495Z,18.95
2022-10-05T05:36:13.545Z,18.89
2022-10-05T05:38:58.764Z,18.85
2022-10-05T05:42:19.178Z,18.96
2022-10-05T05:44:53.910Z,18.91
2022-10-05T05:47:40.732Z,18.94
2022-10-05T05:50:18.861Z,19.01
2022-10-05T05:52:52.012Z,19.06
2022-10-05T05:55:29.682Z,18.98
2022-10-05T05:58:11.959Z,18.94
2022-10-05T06:01:13.198Z,18.90
2022-10-05T06:03:58.181Z,18.95
2022-10-05T06:06:31.329Z,18.96
2022-10-05T06:09:31.096Z,19.06
2022-10-05T06:12:39.700Z,19.13
2022-10-05T06:15:29.458Z,19.06
2022-10-05T06:18:01.887Z,19.14
2022-10-05T06:20:47.628Z,19.07
2022-10-05T06:23:47.927Z,19.26
2022-10-05T06:26:39.689Z,19.25
2022-10-05T06:29:17.059Z,19.10
2022-10-05T06:32:21.082Z,19.18
2022-10-05T06:35:03.820Z,19.14
2022-10-05T06:38:18.152Z,19.10
2022-10-05T06:41:34.758Z,19.18
2022-10-05T06:44:15.993Z,19.20
2022-10-05T06:47:49.904Z,19.57
2022-10-05T06:50:42.676Z,19.60
2022-10-05T06:53:39.758Z,19.55
2022-10-05T06:56:28.613Z,19.50
2022-10-05T06:59:06.256Z,19.90
2022-10-05T07:01:58.581Z,19.88
2022-10-05T07:05:20.292Z,19.90
2022-10-05T07:07:56.741Z,20.04
2022-10-05T07:10:57.918Z,19.80
2022-10-05T07:13:57.081Z,20.03
2022-10-05T07:16:32.835Z,20.10
2022-10-05T07:19:31.089Z,20.17
2022-10-05T07:22:02.043Z,20.11
2022-10-05T07:24:34.785Z,20.04
2022-10-05T07:27:21.326Z,20.09
2022-10-05T07:29:52.346Z,20.06
2022-10-05T07:32:40.264Z,20.21
2022-10-05T07:35:37.426Z,20.25
2022-10-05T07:38:47.045Z,20.45
2022-10-05T07:42:06.945Z,20.51
2022-10-05T07:44:46.041Z,20.55
2022-10-05T07:47:41.171Z,21.06
2022-10-05T07:50:22.713Z,20.92
2022-10-05T07:53:14.235Z,21.27
2022-10-05T07:55:54.483Z,21.52
2022-10-05T07:58:29.548Z,21.88
2022-10-05T08:01:04.960Z,22.12
2022-10-05T08:03:57.778Z,21.95
2022-10-05T08:06:38.246Z,22.23
2022-10-05T08:09:37.950Z,22.33
2022-10-05T08:12:32.078Z,22.01
2022-10-05T08:15:26.049Z,22.23
2022-10-05T08:18:00.609Z,22.29
2022-10-05T08:20:50.742Z,22.18
2022-10-05T08:23:18.507Z,22.08
2022-10-05T08:26:11.800Z,21.77
2022-10-05T08:28:47.228Z,21.18
2022-10-05T08:31:25.255Z,21.04
2022-10-05T08:34:23.163Z,21.43
2022-10-05T08:36:55.924Z,21.02
2022-10-05T08:39:28.801Z,20.79
2022-10-05T08:42:29.173Z,21.35
2022-10-05T08:45:27.405Z,21.33
2022-10-05T08:48:09.989Z,21.59
2022-10-05T08:50:56.082Z,21.55
2022-10-05T08:53:32.465Z,21.75
2022-10-05T08:56:09.077Z,21.94
2022-10-05T08:58:42.824Z,21.91
2022-10-05T09:01:21.934Z,22.36
2022-10-05T09:04:23.972Z,22.33
2022-10-05T09:07:40.142Z,22.64
2022-10-05T09:10:29.974Z,22.70
2022-10-05T09:13:33.775Z,22.99
2022-10-05T09:16:16.991Z,22.79
2022-10-05T09:19:15.100Z,23.28
2022-10-05T09:21:46.704Z,22.90
2022-10-05T09:24:14.661Z,22.36
2022-10-05T09:27:10.172Z,22.67
2022-10-05T09:30:02.318Z,22.67
2022-10-05T09:32:44.792Z,22.58
2022-10-05T09:35:50.023Z,22.90
2022-10-05T09:38:37.608Z,22.78
2022-10-05T09:41:30.020Z,22.48
2022-10-05T09:44:32.113Z,22.98
2022-10-05T09:47:24.203Z,22.97
2022-10-05T09:50:29.917Z,23.39
2022-10-05T09:53:06.160Z,23.56
2022-10-05T09:56:05.478Z,23.52
2022-10-05T09:58:33.548Z,23.65
2022-10-05T10:01:35.218Z,23.91
2022-10-05T10:04:10.299Z,23.62
2022-10-05T10:07:02.564Z,24.09
2022-10-05T10:09:58.243Z,24.38
2022-10-05T10:12:34.928Z,24.78
2022-10-05T10:15:24.129Z,25.16
2022-10-05T10:17:58.075Z,25.28
2022-10-05T10:20:45.999Z,24.93
2022-10-05T10:23:42.766Z,24.80
2022-10-05T10:26:22.467Z,25.40
2022-10-05T10:29:02.329Z,25.15
2022-10-05T10:32:03.479Z,25.39
2022-10-05T10:35:16.023Z,24.62
2022-10-05T10:38:23.873Z,24.51
2022-10-05T10:41:16.185Z,24.63
2022-10-05T10:44:07.282Z,23.94
2022-10-05T10:47:04.349Z,23.97
2022-10-05T10:50:08.284Z,24.51
2022-10-05T10:53:13.627Z,24.45
2022-10-05T10:55:45.867Z,24.57
2022-10-05T10:58:47.667Z,24.60
2022-10-05T11:01:47.284Z,24.52
2022-10-05T11:05:03.096Z,24.25
2022-10-05T11:07:57.249Z,24.43
2022-10-05T11:10:35.345Z,24.47
2022-10-05T11:13:27.684Z,24.01
2022-10-05T11:16:19.448Z,23.66
2022-10-05T11:19:35.038Z,23.61
2022-10-05T11:22:27.955Z,23.56
2022-10-05T11:25:03.761Z,23.66
2022-10-05T11:27:48.334Z,23.66
2022-10-05T11:30:31.223Z,23.57
2022-10-05T11:33:14.315Z,23.58
2022-10-05T11:36:11.170Z,23.40
2022-10-05T11:39:04.353Z,23.40
2022-10-05T11:41:53.654Z,23.56
2022-10-05T11:45:03.033Z,23.54
2022-10-05T11:47:51.446Z,23.62
2022-10-05T11:50:34.125Z,23.64
2022-10-05T11:53:14.419Z,23.78
2022-10-05T11:56:07.584Z,23.77
2022-10-05T11:58:46.406Z,23.65
2022-10-05T12:01:34.789Z,23.56
2022-10-05T12:04:20.799Z,23.45
2022-10-05T12:07:22.074Z,23.40
2022-10-05T12:10:14.592Z,23.45
2022-10-05T12:12:52.009Z,23.42
2022-10-05T12:15:28.586Z,23.62
2022-10-05T12:18:34.204Z,23.68
2022-10-05T12:21:11.197Z,23.44
2022-10-05T12:23:55.525Z,23.59
2022-10-05T12:26:34.688Z,23.52
2022-10-05T12:29:08.224Z,23.60
2022-10-05T12:31:39.339Z,23.74
2022-10-05T12:34:19.089Z,23.66
2022-10-05T12:37:04.965Z,23.57
2022-10-05T12:39:39.294Z,23.82
2022-10-05T12:42:16.201Z,23.75
2022-10-05T12:45:14.125Z,23.65
2022-10-05T12:48:01.064Z,23.59
2022-10-05T12:50:49.103Z,23.66
2022-10-05T12:53:54.849Z,23.64
2022-10-05T12:56:43.398Z,23.78
2022-10-05T12:59:35.735Z,23.65
2022-10-05T13:02:25.445Z,23.77
2022-10-05T13:05:16.561Z,23.87
2022-10-05T13:07:55.543Z,23.78
2022-10-05T13:10:38.920Z,23.97
2022-10-05T13:13:35.318Z,24.10
2022-10-05T13:16:27.781Z,24.19
2022-10-05T13:19:31.310Z,24.07
2022-10-05T13:22:20.662Z,23.93
2022-10-05T13:24:59.554Z,24.05
2022-10-05T13:27:31.999Z,24.10
2022-10-05T13:30:20.102Z,23.93
2022-10-05T13:32:59.834Z,23.94
2022-10-05T13:35:52.458Z,23.65
2022-10-05T13:38:34.335Z,23.86
2022-10-05T13:41:28.160Z,23.81
2022-10-05T13:43:58.889Z,23.84
2022-10-05T13:47:09.267Z,23.92
2022-10-05T13:50:02.547Z,23.93
2022-10-05T13:52:49.113Z,23.98
2022-10-05T13:55:35.403Z,23.97
2022-10-05T13:58:16.399Z,24.04
2022-10-05T14:00:56.141Z,23.98
2022-10-05T14:03:32.221Z,24.25
2022-10-05T14:06:03.735Z,24.19
2022-10-05T14:08:46.782Z,24.36
2022-10-05T14:11:48.719Z,24.37
2022-10-05T14:14:24.989Z,24.23
2022-10-05T14:16:58.676Z,24.33
2022-10-05T14:19:41.327Z,24.29
2022-10-05T14:22:25.023Z,24.41
2022-10-05T14:25:08.454Z,24.49
2022-10-05T14:28:20.531Z,24.67
2022-10-05T14:30:59.261Z,24.47
2022-10-05T14:33:30.876Z,24.37
2022-10-05T14:36:00.025Z,24.52
2022-10-05T14:38:51.540Z,24.39
2022-10-05T14:41:27.620Z,24.18
2022-10-05T14:44:11.480Z,24.24
2022-10-05T14:46:53.583Z,24.30
2022-10-05T14:49:23.403Z,24.22
2022-10-05T14:51:53.562Z,23.96
2022-10-05T14:54:41.423Z,24.04
2022-10-05T14:58:24.155Z,23.94
2022-10-05T15:01:26.871Z,23.98
2022-10-05T15:04:17.920Z,23.86
2022-10-05T15:07:04.287Z,23.82
2022-10-05T15:10:26.282Z,23.79
2022-10-05T15:13:11.948Z,23.72
2022-10-05T15:16:52.434Z,23.60
2022-10-05T15:20:39.288Z,23.57
2022-10-05T15:23:34.266Z,23.60
2022-10-05T15:26:53.993Z,23.65
2022-10-05T15:30:03.110Z,23.55
2022-10-05T15:32:51.333Z,23.57
2022-10-05T15:35:47.056Z,23.61
2022-10-05T15:38:25.816Z,23.56
2022-10-05T15:41:11.913Z,23.40
2022-10-05T15:44:02.252Z,23.38
2022-10-05T15:46:42.249Z,23.28
2022-10-05T15:49:42.810Z,23.24
2022-10-05T15:52:41.250Z,23.24
2022-10-05T15:55:21.443Z,23.33
2022-10-05T15:58:01.655Z,23.37
2022-10-05T16:00:35.117Z,23.38
2022-10-05T16:03:13.794Z,23.34
2022-10-05T16:06:07.704Z,23.39
2022-10-05T16:09:06.389Z,23.44
2022-10-05T16:12:03.014Z,23.47
2022-10-05T16:14:56.986Z,23.47
2022-10-05T16:17:51.127Z,23.41
2022-10-05T16:20:49.836Z,23.41
2022-10-05T16:23:40.895Z,23.23
2022-10-05T16:26:56.713Z,23.17
2022-10-05T16:29:45.680Z,23.04
2022-10-05T16:32:22.362Z,23.00
2022-10-05T16:35:31.274Z,22.98
2022-10-05T16:38:14.407Z,22.87
2022-10-05T16:41:09.931Z,22.82
2022-10-05T16:43:54.821Z,22.96
2022-10-05T16:46:41.026Z,23.11
2022-10-05T16:49:32.734Z,23.11
2022-10-05T16:52:08.559Z,22.92
2022-10-05T16:54:49.130Z,23.03
2022-10-05T16:57:25.704Z,22.84
2022-10-05T17:00:19.421Z,22.64
2022-10-05T17:03:12.173Z,22.53
2022-10-05T17:06:17.335Z,22.55
2022-10-05T17:09:06.161Z,22.55
2022-10-05T17:12:11.976Z,22.59
2022-10-05T17:15:06.769Z,22.50
2022-10-05T17:18:03.873Z,22.45
2022-10-05T17:20:43.312Z,22.25
2022-10-05T17:23:36.622Z,22.19
2022-10-05T17:26:45.591Z,22.13
2022-10-05T17:29:28.338Z,22.14
2022-10-05T17:32:16.342Z,22.08
2022-10-05T17:35:22.233Z,21.85
2022-10-05T17:38:20.472Z,21.90
2022-10-05T17:41:00.496Z,21.83
2022-10-05T17:43:30.935Z,21.77
2022-10-05T17:46:04.203Z,21.86
2022-10-05T17:49:17.448Z,21.91
2022-10-05T17:52:06.666Z,21.86
2022-10-05T17:55:09.377Z,21.77
2022-10-05T17:57:37.788Z,21.67
2022-10-05T18:00:27.244Z,21.60
2022-10-05T18:02:56.587Z,21.53
2022-10-05T18:05:28.997Z,21.47
2022-10-05T18:08:36.831Z,21.33
2022-10-05T18:11:28.834Z,21.31
2022-10-05T18:14:19.784Z,21.20
2022-10-05T18:16:56.904Z,21.17
2022-10-05T18:19:25.288Z,21.02
2022-10-05T18:22:23.967Z,20.91
2022-10-05T18:25:04.547Z,20.90
2022-10-05T18:28:06.406Z,20.85
2022-10-05T18:30:46.274Z,20.75
2022-10-05T18:33:30.285Z,20.71
2022-10-05T18:36:04.871Z,20.61
2022-10-05T18:39:04.188Z,20.49
2022-10-05T18:41:46.815Z,20.38
2022-10-05T18:44:46.448Z,20.32
2022-10-05T18:47:16.911Z,20.33
2022-10-05T18:50:29.980Z,20.32
2022-10-05T18:53:29.548Z,20.27
2022-10-05T18:56:39.506Z,20.18
2022-10-05T18:59:18.576Z,20.08
2022-10-05T19:02:11.975Z,20.06
2022-10-05T19:05:35.827Z,19.94
2022-10-05T19:08:24.527Z,19.82
2022-10-05T19:11:04.040Z,19.80
2022-10-05T19:13:57.448Z,19.71
2022-10-05T19:16:31.210Z,19.62
2022-10-05T19:19:04.141Z,19.49
2022-10-05T19:21:51.379Z,19.46
2022-10-05T19:24:59.588Z,19.43
2022-10-05T19:28:01.206Z,19.26
2022-10-05T19:31:03.412Z,19.33
2022-10-05T19:33:53.373Z,19.27
2022-10-05T19:36:46.837Z,19.23
2022-10-05T19:39:26.992Z,19.17
2022-10-05T19:42:22.262Z,19.20
2022-10-05T19:45:09.312Z,19.11
2022-10-05T19:47:43.955Z,19.07
2022-10-05T19:50:24.235Z,19.04
2022-10-05T19:53:02.588Z,18.97
2022-10-05T19:55:43.728Z,18.94
2022-10-05T19:58:21.521Z,18.98
2022-10-05T20:01:01.407Z,18.89
2022-10-05T20:03:32.165Z,18.88
2022-10-05T20:06:07.283Z,18.91
2022-10-05T20:08:44.501Z,18.83
2022-10-05T20:11:18.197Z,18.78
2022-10-05T20:14:09.647Z,18.85
2022-10-05T20:16:55.956Z,18.75
2022-10-05T20:19:54.472Z,18.70
2022-10-05T20:22:35.426Z,18.62
2022-10-05T20:25:06.497Z,18.65
2022-10-05T20:27:46.699Z,18.61
2022-10-05T20:30:25.633Z,18.61
2022-10-05T20:32:59.581Z,18.66
2022-10-05T20:35:30.910Z,18.58
2022-10-05T20:38:00.371Z,18.62
2022-10-05T20:40:30.554Z,18.57
2022-10-05T20:42:59.042Z,18.60
2022-10-05T20:45:26.786Z,18.68
2022-10-05T20:47:55.160Z,18.58
2022-10-05T20:50:22.992Z,18.50
2022-10-05T20:52:50.807Z,18.39
2022-10-05T20:55:18.716Z,18.29
2022-10-05T20:57:47.498Z,18.36
2022-10-05T21:00:15.282Z,18.35
2022-10-05T21:02:43.004Z,18.35
2022-10-05T21:05:10.980Z,18.30
2022-10-05T21:07:38.804Z,18.29
2022-10-05T21:10:07.192Z,18.21
2022-10-05T21:12:34.948Z,18.15
2022-10-05T21:15:04.764Z,18.12
2022-10-05T21:17:35.274Z,18.17
2022-10-05T21:20:03.115Z,18.16
2022-10-05T21:22:31.076Z,18.05
2022-10-05T21:24:58.842Z,18.04
2022-10-05T21:27:26.582Z,18.05
2022-10-05T21:29:54.562Z,18.08
2022-10-05T21:32:22.386Z,18.02
2022-10-05T21:34:50.221Z,17.92
2022-10-05T21:37:19.949Z,17.92
2022-10-05T21:39:47.800Z,17.89
2022-10-05T21:42:15.572Z,17.90
2022-10-05T21:44:43.354Z,17.90
2022-10-05T21:47:11.116Z,17.83
2022-10-05T21:49:38.910Z,17.81
2022-10-05T21:52:06.773Z,17.81
2022-10-05T21:54:35.209Z,17.75
2022-10-05T21:57:03.335Z,17.71
2022-10-05T21:59:34.235Z,17.72
2022-10-05T22:02:02.482Z,17.67
2022-10-05T22:04:30.182Z,17.66
2022-10-05T22:06:58.114Z,17.70
2022-10-05T22:09:25.815Z,17.68
2022-10-05T22:11:53.586Z,17.67
2022-10-05T22:14:21.474Z,17.68
2022-10-05T22:16:49.552Z,17.71
2022-10-05T22:19:19.313Z,17.63
2022-10-05T22:21:47.296Z,17.68
2022-10-05T22:24:15.040Z,17.67
2022-10-05T22:26:46.522Z,17.69
2022-10-05T22:29:16.280Z,17.70
2022-10-05T22:31:46.340Z,17.64
2022-10-05T22:34:15.047Z,17.62
2022-10-05T22:36:42.982Z,17.53
2022-10-05T22:39:10.751Z,17.51
2022-10-05T22:41:38.490Z,17.44
2022-10-05T22:44:06.940Z,17.45
2022-10-05T22:46:35.014Z,17.37
2022-10-05T22:49:02.913Z,17.42
2022-10-05T22:51:30.742Z,17.38
2022-10-05T22:53:58.490Z,17.36
2022-10-05T22:56:26.466Z,17.31
2022-10-05T22:58:54.279Z,17.35
2022-10-05T23:01:22.195Z,17.35
2022-10-05T23:03:50.052Z,17.40
2022-10-05T23:06:20.278Z,17.39
2022-10-05T23:08:48.114Z,17.36
2022-10-05T23:11:22.692Z,17.33
2022-10-05T23:13:52.428Z,17.20
2022-10-05T23:16:22.420Z,17.25
2022-10-05T23:18:52.295Z,17.32
2022-10-05T23:21:22.012Z,17.29
2022-10-05T23:23:53.297Z,17.27
2022-10-05T23:26:23.365Z,17.29
2022-10-05T23:28:51.560Z,17.25
2022-10-05T23:31:22.350Z,17.14
2022-10-05T23:33:51.136Z,17.08
2022-10-05T23:36:22.027Z,17.15
2022-10-05T23:38:50.231Z,17.26
2022-10-05T23:41:19.885Z,17.17
2022-10-05T23:43:47.914Z,17.25
2022-10-05T23:46:17.687Z,17.21
2022-10-05T23:48:45.722Z,17.08
2022-10-05T23:51:14.043Z,17.16
2022-10-05T23:53:41.953Z,17.14
2022-10-05T23:56:09.791Z,17.17
2022-10-05T23:58:37.617Z,17.14
